Station: Applethorpe  

  Atmospheric Gas Attenuation - ITU Rec 676-11   ----------------- dB/100km -----------------
Date Time Temp RH % AH g/m3 Dew Point Wind Direction Speed kph Gust kph Barometer mB Rainfall Since 9am 24GHz 47GHz 76GHz 122GHz 134GHz 241GHz
08/05 12:30 15.9 32 4.33 -0.8 13 24 1019.2 0 10.5 19.3 23.6 61.2 45.5 153.0
08/05 12:20 15.9 31 4.2 -1.2 13 17 1019.3 0 10.2 19.1 23.2 60.1 44.1 148.0
08/05 12:10 15.1 31 4 -1.9 13 15 1019.4 0 9.8 19.0 22.8 58.9 42.3 141.8
08/05 12:00 15.4 32 4.2 -1.2 9 13 1019.6 0 10.2 19.2 23.4 60.5 44.4 149.0
08/05 11:50 15.1 31 4 -1.9 9 13 1019.6 0 9.8 19.0 22.8 58.9 42.4 141.8
08/05 11:40 15.1 31 4 -1.9 11 13 1019.7 0 9.8 19.0 22.8 58.9 42.4 141.8
08/05 11:30 15.1 30 3.87 -2.3 9 19 1019.7 0 9.5 18.8 22.4 57.8 41.0 136.9
08/05 11:20 15.4 30 3.94 -2.1 13 15 1019.8 0 9.7 18.9 22.5 58.2 41.6 139.1
08/05 11:10 14.6 30 3.75 -2.8 11 17 1019.9 0 9.3 18.8 22.1 57.1 39.9 133.2
08/05 11:00 14.7 30 3.78 -2.7 11 19 1020 0 9.4 18.8 22.2 57.3 40.2 134.1
08/05 10:50 13.9 30 3.6 -3.4 15 19 1020 0 9.0 18.7 21.8 56.3 38.6 128.5
08/05 10:40 13.7 30 3.55 -3.6 11 15 1020.2 0 8.9 18.7 21.7 56.0 38.2 127.0
08/05 10:30 13 31 3.52 -3.7 11 15 1020.5 0 8.9 18.8 21.8 56.2 38.2 126.9
08/05 10:20 12.5 32 3.52 -3.8 7 9 1020.6 0 8.9 18.9 21.9 56.6 38.4 127.7
08/05 10:10 12 33 3.52 -3.8 7 11 1020.6 0 8.9 19.0 22.1 56.9 38.7 128.5
08/05 10:00 11.4 34 3.49 -3.9 7 13 1020.5 0 8.8 19.1 22.1 57.1 38.6 128.2
08/05 09:50 10.6 36 3.51 -3.9 6 9 1020.6 0 8.9 19.3 22.4 57.8 39.2 130.3
08/05 09:40 10.1 38 3.59 -3.6 9 11 1020.7 0 9.1 19.5 22.8 58.9 40.4 134.3
08/05 09:30 9.3 40 3.6 -3.6 9 17 1020.5 0 9.1 19.7 23.1 59.6 40.9 136.0
08/05 09:20 8.6 41 3.52 -3.9 11 13 1020.4 0 9.0 19.7 23.0 59.3 40.3 133.9
08/05 09:10 8.2 45 3.77 -3 11 15 1020.4 0 9.5 20.2 24.0 62.0 43.4 144.8
08/05 09:00 7.5 48 3.84 -2.8 9 13 1020.5 0 9.7 20.4 24.4 63.2 44.7 149.0
08/05 08:50 7 50 3.88 -2.7 11 13 1020.6 0 9.8 20.6 24.7 64.0 45.4 151.6
08/05 08:40 6.2 53 3.9 -2.7 6 7 1020.5 0 9.8 20.8 25.1 64.8 46.1 153.9
08/05 08:30 5.8 54 3.87 -2.8 7 11 1020.6 0 9.8 20.9 25.1 64.9 46.0 153.4
08/05 08:20 5.3 58 4.02 -2.3 6 6 1020.4 0 10.1 21.2 25.8 66.8 48.1 160.9
08/05 08:10 4.7 58 3.87 -2.9 7 13 1020.5 0 9.8 21.1 25.4 65.8 46.6 155.5
08/05 08:00 4.4 61 3.99 -2.4 9 19 1020.5 0 10.1 21.4 25.9 67.2 48.3 161.4
08/05 07:50 4 60 3.82 -3.1 6 7 1020.5 0 9.7 21.2 25.4 65.8 46.4 154.7
08/05 07:40 3.7 62 3.87 -2.9 7 9 1020.4 0 9.9 21.3 25.7 66.6 47.2 157.5
08/05 07:30 3.2 63 3.8 -3.1 9 15 1020.2 0 9.7 21.3 25.6 66.3 46.6 155.3
08/05 07:20 2.8 66 3.88 -2.9 11 13 1020 0 9.9 21.6 26.0 67.4 47.9 159.6
08/05 07:10 1.9 69 3.81 -3.2 6 7 1020.3 0 9.8 21.7 26.1 67.5 47.5 158.3
08/05 07:00 1.8 68 3.73 -3.5 7 9 1020 0 9.6 21.6 25.8 66.7 46.6 154.9
08/05 06:50 1.3 70 3.71 -3.6 6 6 1020 0 9.6 21.6 25.9 66.9 46.6 155.0
08/05 06:40 0.9 72 3.72 -3.6 6 7 1020.2 0 9.6 21.8 26.0 67.4 47.0 156.2
08/05 06:30 0.6 74 3.74 -3.5 7 9 1020 0 9.7 21.9 26.2 67.9 47.4 157.7
08/05 06:20 0.9 72 3.72 -3.6 9 9 1019.8 0 9.6 21.8 26.0 67.4 47.0 156.2
08/05 06:10 0.3 77 3.81 -3.3 7 7 1019.7 0 9.8 22.0 26.6 68.8 48.5 161.5
08/05 06:00 0.2 76 3.74 -3.5 4 6 1019.8 0 9.7 22.0 26.3 68.2 47.7 158.5
08/05 05:50 0.5 73 3.67 -3.8 2 4 1020 0 9.5 21.8 26.0 67.2 46.6 154.7
08/05 05:40 0.7 74 3.77 -3.4 4 6 1019.8 0 9.7 21.9 26.3 68.1 47.7 158.8
08/05 05:30 1.1 71 3.71 -3.6 7 9 1019.7 0 9.6 21.7 25.9 67.1 46.7 155.3
08/05 05:20 0.9 72 3.72 -3.6 7 9 1019.7 0 9.6 21.7 26.0 67.4 47.0 156.2
08/05 05:10 0.6 72 3.64 -3.9 0 0 1019.7 0 9.5 21.7 25.8 66.8 46.1 153.1
08/05 05:00 1.1 71 3.71 -3.6 2 6 1019.6 0 9.6 21.7 25.9 67.1 46.7 155.3
08/05 04:50 1.2 71 3.74 -3.5 6 6 1019.6 0 9.6 21.7 26.0 67.3 47.0 156.5
08/05 04:40 1.3 68 3.61 -4 2 4 1019.6 0 9.4 21.5 25.5 65.9 45.3 150.4
08/05 04:30 1.8 65 3.57 -4.1 6 9 1019.6 0 9.3 21.3 25.1 65.1 44.5 147.7
08/05 04:20 2.4 63 3.6 -3.9 6 6 1019.7 0 9.3 21.2 25.1 64.9 44.6 147.9
08/05 04:10 2.4 63 3.6 -3.9 7 9 1019.6 0 9.3 21.2 25.1 64.9 44.6 147.9
08/05 04:00 2.5 61 3.51 -4.2 4 6 1019.6 0 9.1 21.0 24.7 63.9 43.4 143.8
08/05 03:50 3 59 3.51 -4.3 4 4 1019.6 0 9.1 20.9 24.5 63.5 43.1 142.9
08/05 03:40 3.2 58 3.5 -4.3 6 7 1019.5 0 9.1 20.9 24.4 63.2 42.9 142.1
08/05 03:30 3.6 57 3.53 -4.1 9 17 1019.4 0 9.1 20.8 24.4 63.2 43.0 142.7
08/05 03:20 3.7 54 3.37 -4.8 6 7 1019.4 0 8.8 20.6 23.8 61.5 41.0 135.6
08/05 03:10 4.2 52 3.35 -4.8 11 13 1019.3 0 8.7 20.4 23.6 60.9 40.5 133.9
08/05 03:00 4.4 50 3.27 -5.1 11 22 1019.1 0 8.6 20.2 23.2 60.0 39.4 130.1
08/05 02:50 4.3 51 3.31 -5 11 15 1019.2 0 8.6 20.3 23.4 60.5 40.0 132.0
08/05 02:40 4.4 52 3.4 -4.6 13 20 1019.1 0 8.8 20.4 23.7 61.2 41.0 135.7
08/05 02:30 3.6 58 3.59 -3.9 7 15 1019.1 0 9.3 20.9 24.6 63.8 43.7 145.2
08/05 02:20 3.5 61 3.75 -3.3 7 9 1018.9 0 9.6 21.2 25.3 65.4 45.8 152.4
08/05 02:10 3.6 62 3.84 -3 7 9 1018.9 0 9.8 21.3 25.6 66.2 46.8 156.1
08/05 02:00 3.9 62 3.92 -2.7 7 11 1018.9 0 10.0 21.3 25.8 66.8 47.7 159.1
08/05 01:50 4.2 62 4 -2.5 7 9 1018.7 0 10.1 21.4 26.0 67.3 48.5 161.9
08/05 01:40 4.5 62 4.08 -2.2 9 13 1018.7 0 10.3 21.4 26.2 67.9 49.3 164.8
08/05 01:30 4.7 64 4.27 -1.5 9 17 1018.7 0 10.7 21.7 26.8 69.6 51.5 172.8
08/05 01:20 4.7 65 4.33 -1.3 11 13 1018.7 0 10.8 21.7 27.1 70.3 52.3 175.4
08/05 01:10 4.7 67 4.47 -0.9 9 13 1018.8 0 11.1 22.0 27.6 71.7 54.1 181.7
08/05 01:00 4.5 70 4.6 -0.5 7 13 1018.9 0 11.4 22.2 28.2 73.2 55.9 188.0
08/05 00:50 4.7 70 4.67 -0.3 6 9 1019.2 0 11.5 22.3 28.4 73.8 56.6 190.7
08/05 00:40 4.9 69 4.66 -0.3 6 9 1019.1 0 11.5 22.2 28.3 73.5 56.4 189.8
08/05 00:30 5.4 67 4.68 -0.2 6 9 1019.1 0 11.5 22.1 28.2 73.2 56.2 189.5
08/05 00:20 5.7 66 4.7 -0.2 6 7 1018.9 0 11.6 22.1 28.1 73.1 56.3 189.6
08/05 00:10 5.9 68 4.91 0.4 11 15 1018.7 0 12.0 22.4 28.9 75.1 58.8 198.4
08/05 00:00 5.4 72 5.03 0.8 9 15 1018.6 0 12.3 22.7 29.5 76.8 60.7 205.1
07/05 23:50 5.5 70 4.92 0.4 6 6 1018.8 0 12.0 22.5 29.1 75.6 59.2 199.9
07/05 23:40 6.2 69 5.08 0.9 4 4 1018.9 0 12.4 22.5 29.4 76.6 60.7 205.3
07/05 23:30 6.1 69 5.04 0.9 7 13 1018.9 0 12.3 22.5 29.3 76.3 60.3 203.8
07/05 23:20 6.5 69 5.18 1.2 7 9 1018.9 0 12.6 22.6 29.7 77.3 61.8 209.0
07/05 23:10 6.6 68 5.14 1.1 7 9 1019.2 0 12.5 22.6 29.5 76.8 61.2 207.0
07/05 23:00 6.9 68 5.24 1.4 9 20 1018.9 0 12.7 22.6 29.8 77.6 62.2 210.7
07/05 22:50 7 69 5.35 1.7 13 17 1018.7 0 12.9 22.8 30.2 78.6 63.5 215.3
07/05 22:40 7.2 70 5.5 2.1 17 20 1018.8 0 13.2 23.0 30.7 79.9 65.3 221.5
07/05 22:30 7.3 70 5.53 2.2 9 15 1018.8 0 13.3 23.0 30.8 80.1 65.6 222.6
07/05 22:20 7.4 70 5.57 2.3 13 17 1018.9 0 13.4 23.0 30.9 80.5 66.0 224.1
07/05 22:10 7.5 70 5.61 2.4 13 19 1018.7 0 13.5 23.0 31.0 80.8 66.5 225.6
07/05 22:00 7.7 71 5.76 2.8 15 24 1018.6 0 13.8 23.2 31.5 82.1 68.2 231.8
07/05 21:50 8 71 5.87 3 19 24 1018.8 0 14.0 23.3 31.8 83.0 69.4 235.9
07/05 21:40 8 71 5.87 3 15 20 1019.1 0 14.0 23.3 31.8 83.0 69.4 236.0
07/05 21:30 8.2 71 5.95 3.3 15 32 1018.9 0 14.2 23.4 32.0 83.6 70.2 239.0
07/05 21:20 8.4 72 6.11 3.6 11 17 1018.7 0 14.5 23.6 32.6 85.0 72.1 245.6
07/05 21:10 8.6 71 6.1 3.6 17 22 1018.5 0 14.5 23.5 32.5 84.7 71.8 244.5
07/05 21:00 8.9 72 6.31 4.1 22 43 1018.2 0 14.9 23.8 33.1 86.6 74.2 253.0
07/05 20:50 9.1 73 6.48 4.5 20 26 1018.1 0 15.3 24.0 33.7 88.1 76.2 260.1
07/05 20:40 9.4 72 6.51 4.6 22 30 1017.9 0 15.3 23.9 33.7 88.1 76.3 260.4
07/05 20:30 9.7 70 6.46 4.5 20 33 1017.8 0 15.2 23.8 33.4 87.2 75.4 257.1
07/05 20:20 10 67 6.3 4.3 19 22 1017.6 0 14.8 23.4 32.6 85.2 73.0 248.9
07/05 20:10 10.2 67 6.38 4.3 22 37 1017.5 0 15.0 23.5 32.9 85.8 73.8 251.9
07/05 20:00 10.5 66 6.4 4.4 26 43 1017.3 0 15.0 23.5 32.8 85.7 73.8 251.8

Last Refresh: 08-May-2026 12:08:29

Bureau of Meteorology